sensor_id;sensor_type;location;lat;lon;timestamp;P1;durP1;ratioP1;P2;durP2;ratioP2
60312;SDS011;46158;52.850;6.970;2022-09-09T00:00:47;7.90;;;3.05;;
60312;SDS011;46158;52.850;6.970;2022-09-09T00:03:22;8.13;;;2.83;;
60312;SDS011;46158;52.850;6.970;2022-09-09T00:05:57;7.88;;;3.00;;
60312;SDS011;46158;52.850;6.970;2022-09-09T00:08:45;7.40;;;2.80;;
60312;SDS011;46158;52.850;6.970;2022-09-09T00:11:23;8.93;;;2.83;;
60312;SDS011;46158;52.850;6.970;2022-09-09T00:13:53;9.30;;;3.08;;
60312;SDS011;46158;52.850;6.970;2022-09-09T00:16:25;6.95;;;3.00;;
60312;SDS011;46158;52.850;6.970;2022-09-09T00:21:18;7.82;;;3.05;;
60312;SDS011;46158;52.850;6.970;2022-09-09T00:23:50;8.18;;;3.00;;
60312;SDS011;46158;52.850;6.970;2022-09-09T00:29:05;7.82;;;2.90;;
60312;SDS011;46158;52.850;6.970;2022-09-09T00:31:38;9.35;;;2.95;;
60312;SDS011;46158;52.850;6.970;2022-09-09T00:34:08;7.20;;;2.90;;
60312;SDS011;46158;52.850;6.970;2022-09-09T00:36:39;7.63;;;2.78;;
60312;SDS011;46158;52.850;6.970;2022-09-09T00:39:06;7.60;;;2.95;;
60312;SDS011;46158;52.850;6.970;2022-09-09T00:41:49;7.63;;;2.80;;
60312;SDS011;46158;52.850;6.970;2022-09-09T00:44:20;6.88;;;2.80;;
60312;SDS011;46158;52.850;6.970;2022-09-09T00:46:55;7.53;;;2.70;;
60312;SDS011;46158;52.850;6.970;2022-09-09T00:49:35;5.45;;;2.50;;
60312;SDS011;46158;52.850;6.970;2022-09-09T00:57:52;7.95;;;2.90;;
60312;SDS011;46158;52.850;6.970;2022-09-09T01:00:19;9.02;;;2.90;;
60312;SDS011;46158;52.850;6.970;2022-09-09T01:05:50;5.65;;;2.63;;
60312;SDS011;46158;52.850;6.970;2022-09-09T01:10:58;6.32;;;2.75;;
60312;SDS011;46158;52.850;6.970;2022-09-09T01:15:53;6.63;;;2.75;;
60312;SDS011;46158;52.850;6.970;2022-09-09T01:18:20;7.97;;;2.97;;
60312;SDS011;46158;52.850;6.970;2022-09-09T01:28:33;6.38;;;2.55;;
60312;SDS011;46158;52.850;6.970;2022-09-09T01:31:05;6.57;;;2.72;;
60312;SDS011;46158;52.850;6.970;2022-09-09T01:33:32;3.88;;;2.50;;
60312;SDS011;46158;52.850;6.970;2022-09-09T01:35:59;5.72;;;2.60;;
60312;SDS011;46158;52.850;6.970;2022-09-09T01:38:31;5.13;;;2.53;;
60312;SDS011;46158;52.850;6.970;2022-09-09T01:40:58;5.38;;;2.80;;
60312;SDS011;46158;52.850;6.970;2022-09-09T01:43:24;6.65;;;2.65;;
60312;SDS011;46158;52.850;6.970;2022-09-09T01:45:52;5.80;;;2.55;;
60312;SDS011;46158;52.850;6.970;2022-09-09T01:48:20;7.72;;;2.50;;
60312;SDS011;46158;52.850;6.970;2022-09-09T01:50:48;5.53;;;2.65;;
60312;SDS011;46158;52.850;6.970;2022-09-09T01:53:14;6.25;;;2.70;;
60312;SDS011;46158;52.850;6.970;2022-09-09T01:55:42;5.93;;;2.70;;
60312;SDS011;46158;52.850;6.970;2022-09-09T02:01:05;7.80;;;2.83;;
60312;SDS011;46158;52.850;6.970;2022-09-09T02:03:53;4.93;;;2.33;;
60312;SDS011;46158;52.850;6.970;2022-09-09T02:06:27;5.00;;;2.63;;
60312;SDS011;46158;52.850;6.970;2022-09-09T02:09:03;4.78;;;2.40;;
60312;SDS011;46158;52.850;6.970;2022-09-09T02:11:31;7.13;;;2.50;;
60312;SDS011;46158;52.850;6.970;2022-09-09T02:16:59;6.00;;;2.50;;
60312;SDS011;46158;52.850;6.970;2022-09-09T02:19:42;3.58;;;2.35;;
60312;SDS011;46158;52.850;6.970;2022-09-09T02:22:14;3.80;;;2.38;;
60312;SDS011;46158;52.850;6.970;2022-09-09T02:24:42;6.03;;;2.47;;
60312;SDS011;46158;52.850;6.970;2022-09-09T02:27:09;6.78;;;2.30;;
60312;SDS011;46158;52.850;6.970;2022-09-09T02:29:41;5.65;;;2.30;;
60312;SDS011;46158;52.850;6.970;2022-09-09T02:32:12;3.55;;;2.40;;
60312;SDS011;46158;52.850;6.970;2022-09-09T02:34:45;4.40;;;2.30;;
60312;SDS011;46158;52.850;6.970;2022-09-09T02:37:15;4.65;;;2.20;;
60312;SDS011;46158;52.850;6.970;2022-09-09T02:39:47;6.05;;;2.28;;
60312;SDS011;46158;52.850;6.970;2022-09-09T02:42:13;5.63;;;2.40;;
60312;SDS011;46158;52.850;6.970;2022-09-09T02:44:40;5.22;;;2.42;;
60312;SDS011;46158;52.850;6.970;2022-09-09T02:49:44;3.58;;;2.13;;
60312;SDS011;46158;52.850;6.970;2022-09-09T02:52:20;4.88;;;2.20;;
60312;SDS011;46158;52.850;6.970;2022-09-09T02:55:04;2.80;;;2.00;;
60312;SDS011;46158;52.850;6.970;2022-09-09T02:57:35;7.07;;;2.63;;
60312;SDS011;46158;52.850;6.970;2022-09-09T03:00:03;3.88;;;2.33;;
60312;SDS011;46158;52.850;6.970;2022-09-09T03:02:30;4.32;;;2.30;;
60312;SDS011;46158;52.850;6.970;2022-09-09T03:04:55;3.15;;;2.13;;
60312;SDS011;46158;52.850;6.970;2022-09-09T03:07:21;4.20;;;2.15;;
60312;SDS011;46158;52.850;6.970;2022-09-09T03:09:47;3.58;;;2.10;;
60312;SDS011;46158;52.850;6.970;2022-09-09T03:12:13;4.70;;;2.20;;
60312;SDS011;46158;52.850;6.970;2022-09-09T03:14:40;4.63;;;2.20;;
60312;SDS011;46158;52.850;6.970;2022-09-09T03:17:06;3.47;;;2.15;;
60312;SDS011;46158;52.850;6.970;2022-09-09T03:19:31;5.13;;;2.10;;
60312;SDS011;46158;52.850;6.970;2022-09-09T03:21:59;2.75;;;2.00;;
60312;SDS011;46158;52.850;6.970;2022-09-09T03:24:25;3.58;;;2.20;;
60312;SDS011;46158;52.850;6.970;2022-09-09T03:26:51;4.50;;;2.10;;
60312;SDS011;46158;52.850;6.970;2022-09-09T03:29:16;3.40;;;2.30;;
60312;SDS011;46158;52.850;6.970;2022-09-09T03:31:43;4.60;;;2.30;;
60312;SDS011;46158;52.850;6.970;2022-09-09T03:34:09;4.95;;;2.30;;
60312;SDS011;46158;52.850;6.970;2022-09-09T03:36:35;4.07;;;2.13;;
60312;SDS011;46158;52.850;6.970;2022-09-09T03:39:01;3.03;;;2.10;;
60312;SDS011;46158;52.850;6.970;2022-09-09T03:41:28;2.55;;;2.13;;
60312;SDS011;46158;52.850;6.970;2022-09-09T03:43:54;4.43;;;2.00;;
60312;SDS011;46158;52.850;6.970;2022-09-09T03:46:20;3.97;;;2.13;;
60312;SDS011;46158;52.850;6.970;2022-09-09T03:48:47;6.22;;;2.17;;
60312;SDS011;46158;52.850;6.970;2022-09-09T03:51:13;3.50;;;2.00;;
60312;SDS011;46158;52.850;6.970;2022-09-09T03:53:39;3.42;;;2.10;;
60312;SDS011;46158;52.850;6.970;2022-09-09T03:56:05;3.33;;;2.00;;
60312;SDS011;46158;52.850;6.970;2022-09-09T03:58:32;4.53;;;2.20;;
60312;SDS011;46158;52.850;6.970;2022-09-09T04:01:32;4.32;;;2.10;;
60312;SDS011;46158;52.850;6.970;2022-09-09T04:03:50;5.20;;;2.10;;
60312;SDS011;46158;52.850;6.970;2022-09-09T04:06:17;3.90;;;2.00;;
60312;SDS011;46158;52.850;6.970;2022-09-09T04:08:45;4.70;;;2.10;;
60312;SDS011;46158;52.850;6.970;2022-09-09T04:11:13;2.42;;;1.90;;
60312;SDS011;46158;52.850;6.970;2022-09-09T04:13:41;2.88;;;1.83;;
60312;SDS011;46158;52.850;6.970;2022-09-09T04:16:09;2.25;;;1.92;;
60312;SDS011;46158;52.850;6.970;2022-09-09T04:18:37;2.00;;;1.80;;
60312;SDS011;46158;52.850;6.970;2022-09-09T04:21:03;5.97;;;2.20;;
60312;SDS011;46158;52.850;6.970;2022-09-09T04:23:30;3.08;;;1.73;;
60312;SDS011;46158;52.850;6.970;2022-09-09T04:25:56;2.75;;;2.00;;
60312;SDS011;46158;52.850;6.970;2022-09-09T04:28:24;2.53;;;1.88;;
60312;SDS011;46158;52.850;6.970;2022-09-09T04:30:52;3.05;;;2.00;;
60312;SDS011;46158;52.850;6.970;2022-09-09T04:33:17;2.72;;;2.00;;
60312;SDS011;46158;52.850;6.970;2022-09-09T04:35:45;3.65;;;1.98;;
60312;SDS011;46158;52.850;6.970;2022-09-09T04:38:13;4.05;;;2.00;;
60312;SDS011;46158;52.850;6.970;2022-09-09T04:40:41;2.58;;;1.80;;
60312;SDS011;46158;52.850;6.970;2022-09-09T04:43:13;3.22;;;2.00;;
60312;SDS011;46158;52.850;6.970;2022-09-09T04:45:39;6.53;;;1.95;;
60312;SDS011;46158;52.850;6.970;2022-09-09T04:48:06;3.72;;;2.00;;
60312;SDS011;46158;52.850;6.970;2022-09-09T04:50:32;5.65;;;2.10;;
60312;SDS011;46158;52.850;6.970;2022-09-09T04:53:01;9.90;;;2.30;;
60312;SDS011;46158;52.850;6.970;2022-09-09T04:55:28;4.70;;;2.10;;
60312;SDS011;46158;52.850;6.970;2022-09-09T04:57:55;4.85;;;2.00;;
60312;SDS011;46158;52.850;6.970;2022-09-09T05:00:21;2.90;;;1.83;;
60312;SDS011;46158;52.850;6.970;2022-09-09T05:02:47;4.70;;;2.08;;
60312;SDS011;46158;52.850;6.970;2022-09-09T05:05:13;5.50;;;2.20;;
60312;SDS011;46158;52.850;6.970;2022-09-09T05:07:38;3.63;;;1.95;;
60312;SDS011;46158;52.850;6.970;2022-09-09T05:10:04;3.95;;;1.90;;
60312;SDS011;46158;52.850;6.970;2022-09-09T05:12:31;6.50;;;2.15;;
60312;SDS011;46158;52.850;6.970;2022-09-09T05:14:57;6.25;;;2.28;;
60312;SDS011;46158;52.850;6.970;2022-09-09T05:17:23;9.10;;;2.70;;
60312;SDS011;46158;52.850;6.970;2022-09-09T05:19:48;12.32;;;2.88;;
60312;SDS011;46158;52.850;6.970;2022-09-09T05:22:18;8.35;;;2.45;;
60312;SDS011;46158;52.850;6.970;2022-09-09T05:24:48;5.97;;;2.35;;
60312;SDS011;46158;52.850;6.970;2022-09-09T05:27:15;8.25;;;2.42;;
60312;SDS011;46158;52.850;6.970;2022-09-09T05:29:43;4.47;;;2.10;;
60312;SDS011;46158;52.850;6.970;2022-09-09T05:32:09;8.77;;;2.50;;
60312;SDS011;46158;52.850;6.970;2022-09-09T05:34:35;6.47;;;2.33;;
60312;SDS011;46158;52.850;6.970;2022-09-09T05:37:02;8.30;;;2.42;;
60312;SDS011;46158;52.850;6.970;2022-09-09T05:39:29;8.43;;;2.42;;
60312;SDS011;46158;52.850;6.970;2022-09-09T05:41:55;10.07;;;2.50;;
60312;SDS011;46158;52.850;6.970;2022-09-09T05:44:21;8.63;;;2.60;;
60312;SDS011;46158;52.850;6.970;2022-09-09T05:46:49;10.93;;;2.92;;
60312;SDS011;46158;52.850;6.970;2022-09-09T05:49:14;11.65;;;3.28;;
60312;SDS011;46158;52.850;6.970;2022-09-09T05:51:40;14.80;;;3.10;;
60312;SDS011;46158;52.850;6.970;2022-09-09T05:54:08;12.88;;;2.83;;
60312;SDS011;46158;52.850;6.970;2022-09-09T05:56:33;9.77;;;2.70;;
60312;SDS011;46158;52.850;6.970;2022-09-09T05:58:59;11.95;;;3.03;;
60312;SDS011;46158;52.850;6.970;2022-09-09T06:01:26;16.83;;;3.55;;
60312;SDS011;46158;52.850;6.970;2022-09-09T06:03:57;17.63;;;4.15;;
60312;SDS011;46158;52.850;6.970;2022-09-09T06:06:25;17.17;;;4.00;;
60312;SDS011;46158;52.850;6.970;2022-09-09T06:08:52;18.17;;;3.80;;
60312;SDS011;46158;52.850;6.970;2022-09-09T06:11:20;20.73;;;3.60;;
60312;SDS011;46158;52.850;6.970;2022-09-09T06:13:48;17.83;;;4.10;;
60312;SDS011;46158;52.850;6.970;2022-09-09T06:16:17;18.95;;;4.30;;
60312;SDS011;46158;52.850;6.970;2022-09-09T06:18:44;17.50;;;3.60;;
60312;SDS011;46158;52.850;6.970;2022-09-09T06:21:15;17.38;;;3.95;;
60312;SDS011;46158;52.850;6.970;2022-09-09T06:23:45;15.27;;;3.78;;
60312;SDS011;46158;52.850;6.970;2022-09-09T06:26:13;14.93;;;3.42;;
60312;SDS011;46158;52.850;6.970;2022-09-09T06:31:09;17.60;;;3.53;;
60312;SDS011;46158;52.850;6.970;2022-09-09T06:33:37;16.77;;;3.53;;
60312;SDS011;46158;52.850;6.970;2022-09-09T06:36:06;14.97;;;3.40;;
60312;SDS011;46158;52.850;6.970;2022-09-09T06:38:36;16.90;;;3.55;;
60312;SDS011;46158;52.850;6.970;2022-09-09T06:41:02;13.95;;;3.28;;
60312;SDS011;46158;52.850;6.970;2022-09-09T06:43:28;13.98;;;3.35;;
60312;SDS011;46158;52.850;6.970;2022-09-09T06:45:57;14.68;;;3.50;;
60312;SDS011;46158;52.850;6.970;2022-09-09T06:48:24;12.85;;;3.33;;
60312;SDS011;46158;52.850;6.970;2022-09-09T06:50:59;13.95;;;3.40;;
60312;SDS011;46158;52.850;6.970;2022-09-09T06:53:33;13.18;;;3.25;;
60312;SDS011;46158;52.850;6.970;2022-09-09T06:56:01;15.27;;;3.80;;
60312;SDS011;46158;52.850;6.970;2022-09-09T06:58:27;13.15;;;3.30;;
60312;SDS011;46158;52.850;6.970;2022-09-09T07:01:03;15.27;;;3.35;;
60312;SDS011;46158;52.850;6.970;2022-09-09T07:03:30;11.40;;;3.08;;
60312;SDS011;46158;52.850;6.970;2022-09-09T07:05:57;13.10;;;3.30;;
60312;SDS011;46158;52.850;6.970;2022-09-09T07:08:23;11.85;;;3.10;;
60312;SDS011;46158;52.850;6.970;2022-09-09T07:10:50;13.60;;;3.03;;
60312;SDS011;46158;52.850;6.970;2022-09-09T07:13:25;13.73;;;3.47;;
60312;SDS011;46158;52.850;6.970;2022-09-09T07:15:52;12.20;;;3.33;;
60312;SDS011;46158;52.850;6.970;2022-09-09T07:18:18;11.60;;;2.90;;
60312;SDS011;46158;52.850;6.970;2022-09-09T07:20:53;12.82;;;3.25;;
60312;SDS011;46158;52.850;6.970;2022-09-09T07:23:20;14.48;;;3.28;;
60312;SDS011;46158;52.850;6.970;2022-09-09T07:25:46;10.68;;;2.90;;
60312;SDS011;46158;52.850;6.970;2022-09-09T07:28:12;13.27;;;3.38;;
60312;SDS011;46158;52.850;6.970;2022-09-09T07:30:38;14.70;;;3.20;;
60312;SDS011;46158;52.850;6.970;2022-09-09T07:33:05;16.67;;;3.40;;
60312;SDS011;46158;52.850;6.970;2022-09-09T07:35:31;12.93;;;2.88;;
60312;SDS011;46158;52.850;6.970;2022-09-09T07:37:57;14.07;;;3.17;;
60312;SDS011;46158;52.850;6.970;2022-09-09T07:40:23;13.32;;;3.20;;
60312;SDS011;46158;52.850;6.970;2022-09-09T07:42:49;14.30;;;3.20;;
60312;SDS011;46158;52.850;6.970;2022-09-09T07:45:15;14.45;;;3.22;;
60312;SDS011;46158;52.850;6.970;2022-09-09T07:47:41;13.60;;;3.13;;
60312;SDS011;46158;52.850;6.970;2022-09-09T07:50:08;13.98;;;3.20;;
60312;SDS011;46158;52.850;6.970;2022-09-09T07:52:34;16.75;;;3.38;;
60312;SDS011;46158;52.850;6.970;2022-09-09T07:55:00;12.60;;;3.28;;
60312;SDS011;46158;52.850;6.970;2022-09-09T07:57:28;15.70;;;3.22;;
60312;SDS011;46158;52.850;6.970;2022-09-09T07:59:55;14.55;;;3.47;;
60312;SDS011;46158;52.850;6.970;2022-09-09T08:02:22;15.18;;;3.10;;
60312;SDS011;46158;52.850;6.970;2022-09-09T08:04:50;16.02;;;3.53;;
60312;SDS011;46158;52.850;6.970;2022-09-09T08:07:17;13.82;;;3.00;;
60312;SDS011;46158;52.850;6.970;2022-09-09T08:09:43;15.38;;;3.55;;
60312;SDS011;46158;52.850;6.970;2022-09-09T08:12:09;15.55;;;3.33;;
60312;SDS011;46158;52.850;6.970;2022-09-09T08:14:38;13.77;;;3.10;;
60312;SDS011;46158;52.850;6.970;2022-09-09T08:17:05;14.73;;;3.17;;
60312;SDS011;46158;52.850;6.970;2022-09-09T08:19:30;12.15;;;3.08;;
60312;SDS011;46158;52.850;6.970;2022-09-09T08:21:59;13.20;;;3.35;;
60312;SDS011;46158;52.850;6.970;2022-09-09T08:24:26;15.80;;;3.50;;
60312;SDS011;46158;52.850;6.970;2022-09-09T08:26:52;13.18;;;2.72;;
60312;SDS011;46158;52.850;6.970;2022-09-09T08:29:18;13.20;;;3.20;;
60312;SDS011;46158;52.850;6.970;2022-09-09T08:31:48;14.52;;;3.08;;
60312;SDS011;46158;52.850;6.970;2022-09-09T08:34:16;11.02;;;3.10;;
60312;SDS011;46158;52.850;6.970;2022-09-09T08:36:45;15.57;;;3.00;;
60312;SDS011;46158;52.850;6.970;2022-09-09T08:39:12;15.07;;;3.03;;
60312;SDS011;46158;52.850;6.970;2022-09-09T08:58:27;11.70;;;2.60;;
60312;SDS011;46158;52.850;6.970;2022-09-09T09:06:52;13.40;;;3.10;;
60312;SDS011;46158;52.850;6.970;2022-09-09T09:12:20;12.75;;;3.05;;
60312;SDS011;46158;52.850;6.970;2022-09-09T09:14:49;12.65;;;2.90;;
60312;SDS011;46158;52.850;6.970;2022-09-09T09:17:16;16.33;;;2.78;;
60312;SDS011;46158;52.850;6.970;2022-09-09T09:19:48;15.60;;;3.08;;
60312;SDS011;46158;52.850;6.970;2022-09-09T09:22:19;9.98;;;2.72;;
60312;SDS011;46158;52.850;6.970;2022-09-09T09:30:23;8.73;;;2.53;;
60312;SDS011;46158;52.850;6.970;2022-09-09T09:32:56;14.90;;;3.00;;
60312;SDS011;46158;52.850;6.970;2022-09-09T09:35:48;15.52;;;3.00;;
60312;SDS011;46158;52.850;6.970;2022-09-09T09:38:18;13.70;;;2.90;;
60312;SDS011;46158;52.850;6.970;2022-09-09T09:41:05;29.20;;;8.95;;
60312;SDS011;46158;52.850;6.970;2022-09-09T09:43:32;27.67;;;10.55;;
60312;SDS011;46158;52.850;6.970;2022-09-09T09:45:59;168.13;;;80.72;;
60312;SDS011;46158;52.850;6.970;2022-09-09T09:48:26;94.25;;;42.03;;
60312;SDS011;46158;52.850;6.970;2022-09-09T09:50:53;75.50;;;32.60;;
60312;SDS011;46158;52.850;6.970;2022-09-09T09:56:00;63.95;;;30.60;;
60312;SDS011;46158;52.850;6.970;2022-09-09T09:58:27;62.88;;;30.63;;
60312;SDS011;46158;52.850;6.970;2022-09-09T10:00:58;61.22;;;28.80;;
60312;SDS011;46158;52.850;6.970;2022-09-09T10:03:26;64.50;;;30.10;;
60312;SDS011;46158;52.850;6.970;2022-09-09T10:05:56;64.97;;;29.33;;
60312;SDS011;46158;52.850;6.970;2022-09-09T10:08:25;62.80;;;28.13;;
60312;SDS011;46158;52.850;6.970;2022-09-09T10:16:33;55.00;;;23.80;;
60312;SDS011;46158;52.850;6.970;2022-09-09T10:19:13;55.95;;;25.13;;
60312;SDS011;46158;52.850;6.970;2022-09-09T10:24:42;53.50;;;22.27;;
60312;SDS011;46158;52.850;6.970;2022-09-09T10:27:29;51.70;;;23.50;;
60312;SDS011;46158;52.850;6.970;2022-09-09T10:30:21;50.22;;;22.42;;
60312;SDS011;46158;52.850;6.970;2022-09-09T10:33:04;47.55;;;22.35;;
60312;SDS011;46158;52.850;6.970;2022-09-09T10:38:40;48.08;;;21.52;;
60312;SDS011;46158;52.850;6.970;2022-09-09T10:41:11;49.07;;;22.40;;
60312;SDS011;46158;52.850;6.970;2022-09-09T10:46:17;48.28;;;20.75;;
60312;SDS011;46158;52.850;6.970;2022-09-09T10:48:57;42.90;;;18.77;;
60312;SDS011;46158;52.850;6.970;2022-09-09T10:54:23;48.33;;;19.60;;
60312;SDS011;46158;52.850;6.970;2022-09-09T10:57:25;43.42;;;18.50;;
60312;SDS011;46158;52.850;6.970;2022-09-09T11:00:18;46.05;;;19.40;;
60312;SDS011;46158;52.850;6.970;2022-09-09T11:02:57;41.95;;;18.33;;
60312;SDS011;46158;52.850;6.970;2022-09-09T11:05:28;42.83;;;17.83;;
60312;SDS011;46158;52.850;6.970;2022-09-09T11:08:16;41.03;;;18.08;;
60312;SDS011;46158;52.850;6.970;2022-09-09T11:10:45;39.38;;;18.05;;
60312;SDS011;46158;52.850;6.970;2022-09-09T11:13:23;41.75;;;17.85;;
60312;SDS011;46158;52.850;6.970;2022-09-09T11:16:19;41.75;;;17.45;;
60312;SDS011;46158;52.850;6.970;2022-09-09T11:18:50;37.97;;;16.35;;
60312;SDS011;46158;52.850;6.970;2022-09-09T11:21:29;39.00;;;16.70;;
60312;SDS011;46158;52.850;6.970;2022-09-09T11:24:03;40.88;;;16.20;;
60312;SDS011;46158;52.850;6.970;2022-09-09T11:26:37;37.33;;;16.17;;
60312;SDS011;46158;52.850;6.970;2022-09-09T11:32:03;37.13;;;16.23;;
60312;SDS011;46158;52.850;6.970;2022-09-09T11:42:42;34.05;;;14.52;;
60312;SDS011;46158;52.850;6.970;2022-09-09T11:45:09;33.85;;;14.13;;
60312;SDS011;46158;52.850;6.970;2022-09-09T11:47:41;33.90;;;14.40;;
60312;SDS011;46158;52.850;6.970;2022-09-09T11:52:44;34.60;;;14.27;;
60312;SDS011;46158;52.850;6.970;2022-09-09T11:57:59;33.03;;;13.55;;
60312;SDS011;46158;52.850;6.970;2022-09-09T12:00:43;34.55;;;13.63;;
60312;SDS011;46158;52.850;6.970;2022-09-09T12:09:06;31.53;;;12.97;;
60312;SDS011;46158;52.850;6.970;2022-09-09T12:11:51;31.42;;;11.98;;
60312;SDS011;46158;52.850;6.970;2022-09-09T12:14:21;31.17;;;11.60;;
60312;SDS011;46158;52.850;6.970;2022-09-09T12:17:08;30.00;;;11.32;;
60312;SDS011;46158;52.850;6.970;2022-09-09T12:19:45;30.15;;;11.63;;
60312;SDS011;46158;52.850;6.970;2022-09-09T12:22:14;30.35;;;11.73;;
60312;SDS011;46158;52.850;6.970;2022-09-09T12:30:47;29.67;;;10.50;;
60312;SDS011;46158;52.850;6.970;2022-09-09T12:33:34;27.75;;;10.73;;
60312;SDS011;46158;52.850;6.970;2022-09-09T12:36:02;27.63;;;10.25;;
60312;SDS011;46158;52.850;6.970;2022-09-09T12:38:34;27.20;;;9.73;;
60312;SDS011;46158;52.850;6.970;2022-09-09T12:41:04;28.02;;;10.15;;
60312;SDS011;46158;52.850;6.970;2022-09-09T12:43:30;27.77;;;10.05;;
60312;SDS011;46158;52.850;6.970;2022-09-09T12:45:59;25.45;;;9.68;;
60312;SDS011;46158;52.850;6.970;2022-09-09T12:51:06;26.55;;;9.20;;
60312;SDS011;46158;52.850;6.970;2022-09-09T12:53:43;27.02;;;9.27;;
60312;SDS011;46158;52.850;6.970;2022-09-09T12:56:17;26.50;;;9.40;;
60312;SDS011;46158;52.850;6.970;2022-09-09T12:58:46;25.30;;;8.98;;
60312;SDS011;46158;52.850;6.970;2022-09-09T13:01:23;24.30;;;8.32;;
60312;SDS011;46158;52.850;6.970;2022-09-09T13:03:54;25.48;;;9.13;;
60312;SDS011;46158;52.850;6.970;2022-09-09T13:06:22;24.23;;;8.43;;
60312;SDS011;46158;52.850;6.970;2022-09-09T13:08:56;23.63;;;8.10;;
60312;SDS011;46158;52.850;6.970;2022-09-09T13:11:39;25.77;;;8.77;;
60312;SDS011;46158;52.850;6.970;2022-09-09T13:14:32;24.48;;;8.20;;
60312;SDS011;46158;52.850;6.970;2022-09-09T13:17:03;24.13;;;8.65;;
60312;SDS011;46158;52.850;6.970;2022-09-09T13:19:35;24.42;;;8.32;;
60312;SDS011;46158;52.850;6.970;2022-09-09T13:23:03;25.27;;;8.38;;
60312;SDS011;46158;52.850;6.970;2022-09-09T13:25:21;24.20;;;8.57;;
60312;SDS011;46158;52.850;6.970;2022-09-09T13:28:02;22.70;;;8.20;;
60312;SDS011;46158;52.850;6.970;2022-09-09T13:30:31;23.98;;;7.55;;
60312;SDS011;46158;52.850;6.970;2022-09-09T13:35:55;22.73;;;7.72;;
60312;SDS011;46158;52.850;6.970;2022-09-09T13:38:24;23.63;;;7.30;;
60312;SDS011;46158;52.850;6.970;2022-09-09T13:41:08;22.80;;;7.32;;
60312;SDS011;46158;52.850;6.970;2022-09-09T13:43:38;21.05;;;7.15;;
60312;SDS011;46158;52.850;6.970;2022-09-09T13:46:30;22.00;;;6.97;;
60312;SDS011;46158;52.850;6.970;2022-09-09T13:54:14;19.90;;;6.22;;
60312;SDS011;46158;52.850;6.970;2022-09-09T13:56:41;21.20;;;7.45;;
60312;SDS011;46158;52.850;6.970;2022-09-09T13:59:12;20.02;;;6.78;;
60312;SDS011;46158;52.850;6.970;2022-09-09T14:01:39;20.55;;;6.65;;
60312;SDS011;46158;52.850;6.970;2022-09-09T14:04:06;20.40;;;5.97;;
60312;SDS011;46158;52.850;6.970;2022-09-09T14:06:34;19.80;;;6.00;;
60312;SDS011;46158;52.850;6.970;2022-09-09T14:09:03;19.00;;;6.22;;
60312;SDS011;46158;52.850;6.970;2022-09-09T14:11:30;21.90;;;6.80;;
60312;SDS011;46158;52.850;6.970;2022-09-09T14:13:56;20.67;;;6.13;;
60312;SDS011;46158;52.850;6.970;2022-09-09T14:16:21;21.05;;;6.45;;
60312;SDS011;46158;52.850;6.970;2022-09-09T14:18:47;20.92;;;6.30;;
60312;SDS011;46158;52.850;6.970;2022-09-09T14:21:13;21.45;;;6.28;;
60312;SDS011;46158;52.850;6.970;2022-09-09T14:23:40;20.58;;;6.28;;
60312;SDS011;46158;52.850;6.970;2022-09-09T14:26:06;21.55;;;6.43;;
60312;SDS011;46158;52.850;6.970;2022-09-09T14:28:33;21.30;;;6.15;;
60312;SDS011;46158;52.850;6.970;2022-09-09T14:31:00;20.77;;;5.97;;
60312;SDS011;46158;52.850;6.970;2022-09-09T14:33:27;20.80;;;6.10;;
60312;SDS011;46158;52.850;6.970;2022-09-09T14:35:57;20.05;;;5.70;;
60312;SDS011;46158;52.850;6.970;2022-09-09T14:38:24;22.10;;;5.45;;
60312;SDS011;46158;52.850;6.970;2022-09-09T14:40:50;19.88;;;5.18;;
60312;SDS011;46158;52.850;6.970;2022-09-09T14:43:16;19.08;;;5.35;;
60312;SDS011;46158;52.850;6.970;2022-09-09T14:45:41;20.85;;;5.32;;
60312;SDS011;46158;52.850;6.970;2022-09-09T14:48:08;20.90;;;4.95;;
60312;SDS011;46158;52.850;6.970;2022-09-09T14:50:33;17.98;;;4.40;;
60312;SDS011;46158;52.850;6.970;2022-09-09T14:53:01;19.42;;;4.57;;
60312;SDS011;46158;52.850;6.970;2022-09-09T14:55:27;17.95;;;4.57;;
60312;SDS011;46158;52.850;6.970;2022-09-09T14:57:54;19.40;;;4.40;;
60312;SDS011;46158;52.850;6.970;2022-09-09T15:00:20;19.30;;;4.20;;
60312;SDS011;46158;52.850;6.970;2022-09-09T15:02:45;18.20;;;3.83;;
60312;SDS011;46158;52.850;6.970;2022-09-09T15:05:11;18.20;;;4.55;;
60312;SDS011;46158;52.850;6.970;2022-09-09T15:07:37;19.80;;;3.70;;
60312;SDS011;46158;52.850;6.970;2022-09-09T15:10:03;14.10;;;3.80;;
60312;SDS011;46158;52.850;6.970;2022-09-09T15:12:29;15.43;;;3.50;;
60312;SDS011;46158;52.850;6.970;2022-09-09T15:14:55;14.70;;;3.13;;
60312;SDS011;46158;52.850;6.970;2022-09-09T15:17:21;11.45;;;2.90;;
60312;SDS011;46158;52.850;6.970;2022-09-09T15:19:46;11.25;;;3.20;;
60312;SDS011;46158;52.850;6.970;2022-09-09T15:22:12;14.27;;;3.28;;
60312;SDS011;46158;52.850;6.970;2022-09-09T15:24:38;11.43;;;3.10;;
60312;SDS011;46158;52.850;6.970;2022-09-09T15:27:04;9.45;;;2.67;;
60312;SDS011;46158;52.850;6.970;2022-09-09T15:29:29;13.25;;;3.20;;
60312;SDS011;46158;52.850;6.970;2022-09-09T15:31:55;7.43;;;2.50;;
60312;SDS011;46158;52.850;6.970;2022-09-09T15:34:21;9.18;;;2.50;;
60312;SDS011;46158;52.850;6.970;2022-09-09T15:36:47;12.82;;;2.70;;
60312;SDS011;46158;52.850;6.970;2022-09-09T15:39:16;10.20;;;2.60;;
60312;SDS011;46158;52.850;6.970;2022-09-09T15:41:43;12.57;;;3.08;;
60312;SDS011;46158;52.850;6.970;2022-09-09T15:44:13;12.20;;;2.72;;
60312;SDS011;46158;52.850;6.970;2022-09-09T15:46:49;213.98;;;79.72;;
60312;SDS011;46158;52.850;6.970;2022-09-09T15:49:22;142.35;;;56.72;;
60312;SDS011;46158;52.850;6.970;2022-09-09T15:51:54;121.70;;;50.00;;
60312;SDS011;46158;52.850;6.970;2022-09-09T15:54:23;120.32;;;56.65;;
60312;SDS011;46158;52.850;6.970;2022-09-09T15:56:50;82.28;;;34.90;;
60312;SDS011;46158;52.850;6.970;2022-09-09T15:59:21;126.43;;;63.95;;
60312;SDS011;46158;52.850;6.970;2022-09-09T16:01:48;163.52;;;107.25;;
60312;SDS011;46158;52.850;6.970;2022-09-09T16:04:16;268.95;;;177.13;;
60312;SDS011;46158;52.850;6.970;2022-09-09T16:06:48;155.45;;;104.28;;
60312;SDS011;46158;52.850;6.970;2022-09-09T16:09:16;161.52;;;101.35;;
60312;SDS011;46158;52.850;6.970;2022-09-09T16:11:41;143.70;;;91.40;;
60312;SDS011;46158;52.850;6.970;2022-09-09T16:14:07;143.95;;;88.70;;
60312;SDS011;46158;52.850;6.970;2022-09-09T16:16:34;132.65;;;80.68;;
60312;SDS011;46158;52.850;6.970;2022-09-09T16:19:02;138.38;;;83.68;;
60312;SDS011;46158;52.850;6.970;2022-09-09T16:21:32;129.00;;;78.38;;
60312;SDS011;46158;52.850;6.970;2022-09-09T16:24:00;125.15;;;76.18;;
60312;SDS011;46158;52.850;6.970;2022-09-09T16:26:28;118.00;;;69.55;;
60312;SDS011;46158;52.850;6.970;2022-09-09T16:28:55;143.50;;;82.60;;
60312;SDS011;46158;52.850;6.970;2022-09-09T16:31:23;107.47;;;62.33;;
60312;SDS011;46158;52.850;6.970;2022-09-09T16:33:49;101.15;;;59.13;;
60312;SDS011;46158;52.850;6.970;2022-09-09T16:36:23;116.65;;;62.60;;
60312;SDS011;46158;52.850;6.970;2022-09-09T16:38:53;94.50;;;54.45;;
60312;SDS011;46158;52.850;6.970;2022-09-09T16:41:20;93.35;;;54.85;;
60312;SDS011;46158;52.850;6.970;2022-09-09T16:43:46;84.93;;;49.35;;
60312;SDS011;46158;52.850;6.970;2022-09-09T16:46:18;80.00;;;48.85;;
60312;SDS011;46158;52.850;6.970;2022-09-09T16:48:45;75.28;;;44.15;;
60312;SDS011;46158;52.850;6.970;2022-09-09T16:51:19;98.60;;;53.53;;
60312;SDS011;46158;52.850;6.970;2022-09-09T16:53:53;75.82;;;43.13;;
60312;SDS011;46158;52.850;6.970;2022-09-09T16:56:20;75.15;;;42.53;;
60312;SDS011;46158;52.850;6.970;2022-09-09T16:58:51;75.35;;;43.35;;